Michigan City, Mississippi
Current Conditions -  °F | °C
As of 5:35 AM on Monday 24 Nov 2014 (Local Time) from KOLV Reporting Station
Overcast Overcast  
Wind Chill: 52°   Ceiling: 2200
Heat Index: 52°   Visibility: 8mi
Dew Point: 50°   Wind: 22mph
Humidity: 94%   Direction: 270°W
Pressure: 29.66"   Gusts: 32mph
Location:  34.98°N, 89.25°W
Report Text: KOLV 241135Z AUTO 27019G28KT 8SM BKN022 OVC028 11/10 A2966 RMK A01 P000
Loading
Personal Weather Stations






























Interactive Weather Map New forecast layout! Learn more

10-Day Weather Forecast

Advertisements
Track Severe Weather on mobile